METAR LDZA 290130Z 00000KT 0300 R04/0800N R22/0600N FG VV002 08/07 Q1018 NOSIG =
METAR LDZA 290100Z 00000KT 0200 R04/0800N R22/0350N FG VV002 07/07 Q1018 NOSIG =
METAR LDZA 290030Z 00000KT 0200 R04/0550N R22/0650N FG VV002 07/07 Q1018 NOSIG =
METAR LDZA 290000Z 00000KT 0100 R04/0450N R22/0650N FG VV001 07/06 Q1018 NOSIG =
METAR LDZA 282330Z 00000KT 0100 R04/0225N R22/0500N FG VV001 07/06 Q1018 NOSIG =
METAR LDZA 282300Z VRB01KT 0200 R04/0400N R22/0550D FG VV001 06/06 Q1018 NOSIG =
METAR COR LDZA 282230Z 00000KT 0200 R04/0500N R22/0550N FG VV001 07/06 Q1018 NOSIG =
METAR LDZA 282200Z 00000KT 0200 R04/0550N R22/0400N FG NSC 06/06 Q1018 BECMG VV001 =
METAR LDZA 282130Z VRB01KT 0500 R04/0700U R22/0500U FG NSC 06/06 Q1018 BECMG VV001 =
METAR LDZA 282100Z 00000KT 0500 R04/0550N R22/0800U FG NSC 07/07 Q1018 BECMG VV001 =
METAR LDZA 282030Z 00000KT 0300 R04/0450D R22/1200D FG NSC 08/07 Q1018 BECMG VV001 =
METAR LDZA 282000Z 00000KT 0300 R04/0700D R22/0550D PRFG NSC 08/07 Q1018 BECMG VV001 =
METAR LDZA 281930Z 00000KT 0600 R04/0750U R22/1800D PRFG NSC 09/08 Q1018 BECMG 0200 FG VV001 =
METAR LDZA 281900Z 00000KT 3000 R04/1400U R22/1000U BCFG NSC 09/08 Q1018 BECMG 0200 FG VV001 =
METAR LDZA 281830Z VRB02KT 9999 MIFG NSC 09/08 Q1017 BECMG 3000 BR =
METAR LDZA 281800Z 00000KT 9999 MIFG NSC 09/08 Q1017 BECMG 3000 BR =
METAR LDZA 281730Z 00000KT 9999 MIFG NSC 10/09 Q1017 BECMG 3000 BR OVC005 =
METAR LDZA 281700Z 00000KT 9999 MIFG FEW003 11/09 Q1017 BECMG 3000 BR OVC005 =
METAR LDZA 281630Z 00000KT 9999 MIFG FEW022 11/09 Q1017 BECMG 3000 BR OVC005 =
METAR LDZA 281600Z 00000KT 9999 FEW022 13/10 Q1017 NOSIG =
METAR LDZA 281530Z 00000KT 9999 FEW022 14/11 Q1017 NOSIG =
METAR LDZA 281500Z VRB02KT 9999 FEW025 15/11 Q1017 NOSIG =
METAR LDZA 281430Z 14003KT 100V190 9999 FEW020 15/11 Q1016 NOSIG =
METAR LDZA 281400Z 12004KT 9999 BKN020 14/11 Q1016 NOSIG =
METAR LDZA 281330Z 00000KT 9999 BKN018 14/11 Q1017 NOSIG =
METAR LDZA 281300Z VRB02KT 9999 BKN018 14/11 Q1017 NOSIG =
METAR LDZA 281230Z VRB02KT 9999 BKN012 14/11 Q1017 BECMG OVC015 =
METAR LDZA 281200Z VRB02KT 9999 OVC010 13/11 Q1017 NOSIG =
METAR LDZA 281130Z VRB02KT 9999 OVC008 13/11 Q1017 NOSIG =
METAR LDZA 281100Z 29003KT 220V340 9999 OVC008 13/10 Q1017 NOSIG =
METAR LDZA 281030Z VRB02KT 9999 OVC007 13/11 Q1017 NOSIG =
METAR LDZA 281000Z 27003KT 230V350 9999 OVC007 12/10 Q1017 NOSIG =
METAR LDZA 280930Z 00000KT 9999 OVC006 12/10 Q1018 NOSIG =
METAR LDZA 280900Z VRB01KT 9999 OVC006 12/10 Q1017 NOSIG =
METAR LDZA 280830Z 00000KT 9999 OVC007 12/10 Q1017 NOSIG =
METAR LDZA 280800Z VRB02KT 9999 OVC007 12/10 Q1017 NOSIG =
METAR LDZA 280730Z 00000KT 9999 OVC007 11/10 Q1017 NOSIG =
METAR LDZA 280700Z VRB01KT 9999 OVC007 11/09 Q1017 NOSIG =
METAR LDZA 280630Z 09003KT 050V120 9999 OVC008 11/09 Q1016 NOSIG =
METAR LDZA 280600Z 00000KT 9999 OVC008 10/08 Q1016 NOSIG =
METAR LDZA 280530Z 00000KT 9999 OVC007 10/09 Q1016 NOSIG =
METAR LDZA 280500Z 00000KT 7000 OVC009 10/09 Q1016 NOSIG =
METAR LDZA 280430Z VRB01KT 7000 OVC008 10/09 Q1016 NOSIG =
METAR LDZA 280400Z VRB02KT 7000 OVC008 10/09 Q1016 NOSIG =
METAR LDZA 280330Z 12004KT 080V150 7000 OVC009 11/09 Q1015 NOSIG =
METAR LDZA 280300Z 12003KT 080V140 7000 OVC010 11/10 Q1015 NOSIG =
METAR LDZA 280230Z VRB02KT 7000 OVC011 11/10 Q1015 NOSIG =
METAR LDZA 280200Z 11003KT 080V140 7000 OVC010 11/10 Q1015 NOSIG =
METAR LDZA 280130Z 11003KT 080V140 7000 OVC010 12/11 Q1015 NOSIG =
METAR LDZA 280100Z 00000KT 7000 OVC010 12/11 Q1015 NOSIG =
METAR LDZA 280030Z 07003KT 020V110 7000 OVC010 12/11 Q1015 NOSIG =
METAR LDZA 280000Z VRB02KT 6000 OVC006 12/11 Q1015 NOSIG =
METAR LDZA 272330Z 06004KT 010V110 6000 OVC006 12/11 Q1015 NOSIG =
METAR LDZA 272300Z 04006KT 010V080 6000 OVC006 12/11 Q1015 NOSIG =
METAR LDZA 272230Z 07004KT 030V110 6000 OVC004 13/12 Q1014 NOSIG =
METAR LDZA 272200Z 05003KT 010V100 5000 BR OVC004 13/12 Q1014 NOSIG =
METAR LDZA 272130Z VRB01KT 6000 OVC006 13/12 Q1014 NOSIG =
METAR LDZA 272100Z VRB01KT 6000 OVC006 13/12 Q1014 NOSIG =
METAR LDZA 272030Z VRB02KT 5000 BR OVC006 13/12 Q1014 NOSIG =
METAR LDZA 272000Z 01003KT 340V050 5000 -DZ BR OVC006 13/12 Q1014 TEMPO BKN003 =
METAR LDZA 271930Z VRB01KT 4000 -RA BR FEW003 OVC008 13/12 Q1014 TEMPO BKN003 =
METAR LDZA 271900Z 00000KT 4000 -RA BR FEW003 OVC006 12/12 Q1014 TEMPO BKN003 =
METAR LDZA 271830Z 00000KT 4000 -RA BR SCT003 BKN006 13/12 Q1013 TEMPO BKN003 =
METAR LDZA 271800Z 00000KT 4000 -RA BR FEW002 BKN006 12/12 Q1013 NOSIG =
METAR LDZA 271730Z VRB01KT 4000 -RA BR BKN010 12/11 Q1013 NOSIG =
METAR LDZA 271700Z VRB01KT 4000 -RA BR FEW008 12/12 Q1012 TEMPO BKN008 =
METAR LDZA 271630Z 13003KT 5000 -RA BR SCT008 12/12 Q1012 TEMPO 4000 RA BKN008 =
METAR LDZA 271600Z VRB01KT 6000 -RA FEW006 12/12 Q1012 RERA TEMPO 4000 RA BKN006 =
METAR LDZA 271530Z 24003KT 200V270 9999 -RA NSC 13/12 Q1011 TEMPO RA BKN005 =
METAR LDZA 271500Z 24005KT 9999 -RA FEW005 13/12 Q1011 TEMPO RA BKN005 =
METAR LDZA 271430Z 26004KT 230V290 9999 -RA FEW005 13/12 Q1011 NOSIG =
METAR LDZA 271400Z 27004KT 230V290 9999 -RA FEW005 13/12 Q1010 TEMPO 4000 RA BKN005 =